Time;durP1;ratioP1;P1;durP2;ratioP2;P2;SDS_P1;SDS_P2;PMS_P1;PMS_P2;Temp;Humidity;BMP_temperature;BMP_pressure;BME280_temperature;BME280_humidity;BME280_pressure;Samples;Min_cycle;Max_cycle;Signal;HPM_P1;HPM_P2
2022/04/20 00:00:02;;;;;;;2.10;1.92;;;;;;;12.16;45.78;98957.34;5011765;28;20193;-75
2022/04/20 00:02:29;;;;;;;2.92;1.98;;;;;;;12.27;45.13;98947.47;4998247;28;20196;-75
2022/04/20 00:04:56;;;;;;;3.15;2.47;;;;;;;12.20;45.41;98946.19;4993534;28;20202;-75
2022/04/20 00:07:24;;;;;;;4.70;2.03;;;;;;;12.30;44.62;98949.06;4992294;28;20218;-75
2022/04/20 00:09:51;;;;;;;2.67;2.30;;;;;;;12.19;44.69;98952.59;5000182;28;20650;-76
2022/04/20 00:12:17;;;;;;;3.95;2.20;;;;;;;12.07;45.31;98940.00;5015936;28;20193;-75
2022/04/20 00:14:44;;;;;;;5.30;2.78;;;;;;;11.98;45.61;98946.94;5014381;28;20186;-75
2022/04/20 00:17:11;;;;;;;4.22;3.40;;;;;;;11.88;45.63;98937.81;5016078;28;20204;-75
2022/04/20 00:19:37;;;;;;;2.17;1.98;;;;;;;11.72;46.11;98938.06;5011195;28;20183;-75
2022/04/20 00:22:04;;;;;;;3.70;2.50;;;;;;;11.78;45.97;98942.13;5000438;28;20183;-75
2022/04/20 00:24:32;;;;;;;3.60;2.20;;;;;;;11.92;45.61;98941.13;5011460;28;20205;-75
2022/04/20 00:26:59;;;;;;;3.75;2.70;;;;;;;11.89;45.46;98940.41;4996912;28;20218;-75
2022/04/20 00:29:25;;;;;;;2.85;2.20;;;;;;;11.78;45.48;98945.72;4999797;28;20283;-75
2022/04/20 00:31:52;;;;;;;2.50;2.30;;;;;;;11.67;45.81;98937.53;4995771;28;20184;-75
2022/04/20 00:34:19;;;;;;;3.90;2.30;;;;;;;11.59;45.60;98939.91;4999495;28;20194;-74
2022/04/20 00:36:50;;;;;;;4.80;2.40;;;;;;;11.52;46.05;98939.50;4996226;28;20576;-75
2022/04/20 00:39:17;;;;;;;2.75;2.25;;;;;;;11.55;45.75;98936.56;5008574;28;20282;-75
2022/04/20 00:41:45;;;;;;;3.00;2.60;;;;;;;11.44;45.82;98937.38;4999870;28;20207;-75
2022/04/20 00:44:12;;;;;;;5.88;2.45;;;;;;;11.37;45.98;98940.59;4996302;28;20611;-75
2022/04/20 00:46:41;;;;;;;4.35;2.70;;;;;;;11.29;46.06;98946.56;5014995;28;20190;-76
2022/04/20 00:49:08;;;;;;;3.13;2.60;;;;;;;11.47;45.20;98942.53;5014438;28;20203;-75
2022/04/20 00:51:35;;;;;;;5.00;2.50;;;;;;;11.39;45.44;98942.22;5013399;28;20637;-75
2022/04/20 00:54:02;;;;;;;4.10;2.80;;;;;;;11.35;45.29;98946.13;5013178;28;20612;-75
2022/04/20 00:56:29;;;;;;;3.00;2.70;;;;;;;11.14;45.33;98948.50;5008161;28;20669;-76
2022/04/20 00:59:01;;;;;;;5.00;2.47;;;;;;;11.15;45.32;98944.84;5014777;28;20274;-75
2022/04/20 01:01:27;;;;;;;3.50;2.90;;;;;;;11.22;44.96;98946.13;4999888;28;20223;-74
2022/04/20 01:03:54;;;;;;;2.90;2.50;;;;;;;11.26;44.85;98953.03;5007884;28;20325;-75
2022/04/20 01:06:21;;;;;;;2.60;2.35;;;;;;;11.31;44.41;98947.31;4996981;28;20204;-75
2022/04/20 01:08:48;;;;;;;2.70;2.50;;;;;;;11.36;44.30;98941.59;4995333;28;20238;-75
2022/04/20 01:11:15;;;;;;;3.90;2.40;;;;;;;11.30;44.34;98952.81;5013373;28;20206;-75
2022/04/20 01:13:42;;;;;;;5.88;2.70;;;;;;;11.29;44.19;98951.94;4999614;28;20303;-75
2022/04/20 01:16:09;;;;;;;2.70;2.50;;;;;;;11.24;44.31;98948.72;4997645;28;20199;-75
2022/04/20 01:18:42;;;;;;;2.92;2.30;;;;;;;11.21;44.54;98951.63;4996016;28;20185;-74
2022/04/20 01:21:10;;;;;;;4.55;3.00;;;;;;;11.20;44.22;98953.47;5013908;28;20965;-75
2022/04/20 01:23:37;;;;;;;2.80;2.60;;;;;;;11.02;44.44;98947.53;5012922;28;20195;-74
2022/04/20 01:26:06;;;;;;;3.40;2.92;;;;;;;11.03;44.60;98946.59;5007796;28;20191;-75
2022/04/20 01:28:33;;;;;;;3.08;2.75;;;;;;;10.97;44.63;98948.84;5006462;28;20662;-75
2022/04/20 01:31:00;;;;;;;5.40;2.70;;;;;;;10.93;44.54;98944.63;4994878;28;20246;-75
2022/04/20 01:33:27;;;;;;;3.10;2.63;;;;;;;10.82;44.80;98948.06;5008567;28;20198;-75
2022/04/20 01:35:53;;;;;;;3.25;2.30;;;;;;;10.71;44.97;98945.25;5014051;28;20210;-76
2022/04/20 01:38:21;;;;;;;4.25;2.55;;;;;;;10.65;44.77;98943.88;5014861;28;20276;-75
2022/04/20 01:40:48;;;;;;;3.15;2.85;;;;;;;10.59;45.12;98947.81;4999899;28;20205;-75
2022/04/20 01:43:14;;;;;;;3.00;2.58;;;;;;;10.61;44.93;98940.50;4994933;28;20209;-76
2022/04/20 01:45:41;;;;;;;3.55;2.45;;;;;;;10.70;44.94;98927.38;5010931;28;20622;-75
2022/04/20 01:48:08;;;;;;;3.28;2.53;;;;;;;10.62;45.14;98926.06;5014118;28;20210;-75
2022/04/20 01:51:46;;;;;;;2.70;2.50;;;;;;;10.55;45.23;98930.16;5001826;28;20203;-75
2022/04/20 01:53:23;;;;;;;3.05;2.65;;;;;;;10.53;45.42;98931.22;4997145;28;20195;-75
2022/04/20 01:55:49;;;;;;;2.80;2.42;;;;;;;10.69;44.95;98925.66;5009873;28;20265;-75
2022/04/20 01:58:16;;;;;;;4.28;3.22;;;;;;;10.54;45.26;98927.59;5014537;28;20405;-73
2022/04/20 02:00:42;;;;;;;2.97;2.30;;;;;;;10.36;45.69;98933.25;5000617;28;20213;-74
2022/04/20 02:03:08;;;;;;;2.80;2.47;;;;;;;10.50;45.54;98926.06;4994730;28;20955;-75
2022/04/20 02:05:34;;;;;;;3.17;2.37;;;;;;;10.45;45.52;98926.38;4997864;28;20291;-74
2022/04/20 02:08:01;;;;;;;2.80;2.60;;;;;;;10.40;45.44;98928.50;4995858;28;20211;-76
2022/04/20 02:10:29;;;;;;;3.55;3.10;;;;;;;10.22;45.85;98926.09;5011286;28;20218;-75
2022/04/20 02:12:56;;;;;;;3.28;2.70;;;;;;;10.33;45.76;98929.88;5014080;28;20639;-75
2022/04/20 02:15:22;;;;;;;3.20;2.60;;;;;;;10.37;45.62;98934.09;5010055;28;20548;-75
2022/04/20 02:17:49;;;;;;;2.78;2.58;;;;;;;10.25;45.87;98929.53;5013863;28;20656;-75
2022/04/20 02:20:16;;;;;;;2.78;2.55;;;;;;;10.20;45.96;98930.69;5003416;28;20248;-75
2022/04/20 02:22:42;;;;;;;5.43;2.50;;;;;;;10.15;46.05;98926.56;4993969;28;20209;-75
2022/04/20 02:25:09;;;;;;;3.17;2.88;;;;;;;10.27;45.77;98936.53;4998823;28;20202;-75
2022/04/20 02:27:38;;;;;;;3.58;2.35;;;;;;;10.13;46.10;98940.16;4997451;28;20207;-75
2022/04/20 02:30:05;;;;;;;3.95;2.65;;;;;;;10.28;45.97;98940.06;4993967;28;20210;-75
2022/04/20 02:32:32;;;;;;;3.13;2.83;;;;;;;10.25;46.09;98941.16;4993604;28;20191;-75
2022/04/20 02:34:58;;;;;;;5.07;2.35;;;;;;;10.24;46.23;98944.78;4996756;28;20609;-75
2022/04/20 02:37:25;;;;;;;6.90;2.55;;;;;;;10.14;46.54;98943.69;4993716;28;20541;-76
2022/04/20 02:39:52;;;;;;;3.30;2.72;;;;;;;10.07;46.89;98939.69;5005337;28;20194;-75
2022/04/20 02:42:19;;;;;;;3.92;2.83;;;;;;;9.92;47.43;98944.25;5006970;28;20269;-75
2022/04/20 02:44:47;;;;;;;5.90;2.78;;;;;;;10.01;47.13;98940.94;4999327;28;20200;-76
2022/04/20 02:47:16;;;;;;;5.97;3.00;;;;;;;9.96;47.38;98935.03;5013254;28;20636;-76
2022/04/20 02:49:42;;;;;;;3.35;3.00;;;;;;;9.97;47.29;98936.72;5007875;28;20198;-75
2022/04/20 02:52:09;;;;;;;2.72;2.53;;;;;;;9.92;47.56;98936.19;4997549;28;20282;-75
2022/04/20 02:54:36;;;;;;;2.75;2.55;;;;;;;9.83;48.04;98940.34;5004252;28;20235;-74
2022/04/20 02:57:02;;;;;;;7.10;3.45;;;;;;;9.69;48.46;98935.88;5012988;28;20240;-74
2022/04/20 02:59:29;;;;;;;3.60;2.67;;;;;;;9.71;48.41;98943.84;5010146;28;20193;-75
2022/04/20 03:01:56;;;;;;;6.35;3.25;;;;;;;9.64;48.86;98948.75;4995736;28;20202;-74
2022/04/20 03:04:23;;;;;;;4.82;3.00;;;;;;;9.56;48.96;98945.69;4995736;28;20321;-77
2022/04/20 03:06:50;;;;;;;3.65;2.70;;;;;;;9.54;49.07;98947.59;5003127;28;20233;-74
2022/04/20 03:09:17;;;;;;;3.55;3.20;;;;;;;9.56;48.84;98941.16;5013136;28;20209;-75
2022/04/20 03:11:43;;;;;;;3.05;2.47;;;;;;;9.54;49.00;98942.22;5012249;28;20201;-75
2022/04/20 03:14:10;;;;;;;4.95;2.80;;;;;;;9.53;48.83;98943.19;4999337;28;20194;-75
2022/04/20 03:16:37;;;;;;;6.32;3.22;;;;;;;9.61;48.70;98948.97;5012983;28;20194;-75
2022/04/20 03:19:05;;;;;;;3.85;3.30;;;;;;;9.55;48.71;98952.88;4993493;28;20292;-75
2022/04/20 03:21:32;;;;;;;3.83;2.80;;;;;;;9.53;48.60;98953.94;4993525;28;20657;-75
2022/04/20 03:23:58;;;;;;;5.35;3.10;;;;;;;9.50;48.73;98951.47;5002429;28;20212;-75
2022/04/20 03:26:25;;;;;;;3.55;3.17;;;;;;;9.48;48.76;98950.69;5012681;28;20242;-75
2022/04/20 03:28:51;;;;;;;5.15;2.92;;;;;;;9.39;48.97;98949.47;5012914;28;20215;-76
2022/04/20 03:31:18;;;;;;;3.42;3.13;;;;;;;9.36;49.19;98944.25;4995283;28;20197;-75
2022/04/20 03:33:45;;;;;;;7.22;3.20;;;;;;;9.29;49.39;98954.53;5008446;28;20188;-75
2022/04/20 03:36:13;;;;;;;6.10;3.63;;;;;;;9.26;49.53;98949.38;4994559;28;20196;-75
2022/04/20 03:38:39;;;;;;;5.80;2.90;;;;;;;9.31;49.61;98947.25;4992791;28;20204;-75
2022/04/20 03:41:06;;;;;;;4.72;3.20;;;;;;;9.32;49.51;98942.75;5009408;28;20203;-75
2022/04/20 03:43:33;;;;;;;4.28;2.90;;;;;;;9.28;49.51;98950.13;5010688;28;20194;-75
2022/04/20 03:45:59;;;;;;;4.85;2.78;;;;;;;9.16;49.82;98957.16;5007009;28;20292;-75
2022/04/20 03:48:26;;;;;;;4.60;3.13;;;;;;;9.24;49.64;98961.16;4996487;28;20209;-74
2022/04/20 03:50:53;;;;;;;3.03;2.70;;;;;;;9.25;49.72;98969.13;4997755;28;20280;-75
2022/04/20 03:53:21;;;;;;;3.08;2.78;;;;;;;9.18;49.78;98962.44;5003566;28;20208;-75
2022/04/20 03:55:47;;;;;;;5.47;3.53;;;;;;;9.20;49.98;98968.53;5012651;28;20227;-75
2022/04/20 03:58:14;;;;;;;6.53;3.25;;;;;;;9.24;49.91;98961.16;5016418;28;20186;-75
2022/04/20 04:00:41;;;;;;;3.72;3.17;;;;;;;9.13;50.06;98962.69;5002428;28;20202;-75
2022/04/20 04:03:07;;;;;;;4.28;3.20;;;;;;;9.10;50.09;98957.53;5004425;28;20189;-75
2022/04/20 04:05:34;;;;;;;4.60;3.60;;;;;;;9.00;50.36;98958.19;5006795;28;20201;-75
2022/04/20 04:08:00;;;;;;;4.18;3.30;;;;;;;9.01;50.64;98963.47;5015728;28;20215;-75
2022/04/20 04:10:28;;;;;;;4.40;3.40;;;;;;;8.94;50.77;98968.34;5012121;28;20203;-75
2022/04/20 04:12:55;;;;;;;5.35;4.13;;;;;;;8.96;50.91;98966.44;5005035;28;20198;-75
2022/04/20 04:15:22;;;;;;;7.40;3.58;;;;;;;9.02;50.93;98962.50;5001332;28;20631;-74
2022/04/20 04:17:54;;;;;;;5.68;3.90;;;;;;;9.13;50.82;98969.88;4996054;28;20178;-75
2022/04/20 04:20:21;;;;;;;3.60;3.30;;;;;;;9.07;51.41;98968.47;4996713;28;20279;-75
2022/04/20 04:22:47;;;;;;;8.98;3.63;;;;;;;9.04;50.86;98967.78;5001095;28;20203;-75
2022/04/20 04:25:14;;;;;;;5.70;4.03;;;;;;;8.95;51.08;98963.84;5009247;28;20292;-75
2022/04/20 04:27:42;;;;;;;4.75;3.65;;;;;;;8.92;51.11;98974.78;5015404;28;20706;-75
2022/04/20 04:30:09;;;;;;;4.75;3.92;;;;;;;8.98;50.92;98961.84;5006474;28;20308;-75
2022/04/20 04:32:36;;;;;;;4.35;3.13;;;;;;;8.92;51.14;98967.56;4997447;28;20535;-74
2022/04/20 04:35:03;;;;;;;4.28;3.40;;;;;;;8.90;51.03;98972.16;5004632;28;20202;-74
2022/04/20 04:37:29;;;;;;;4.88;3.80;;;;;;;9.06;50.80;98972.09;5012148;28;20215;-75
2022/04/20 04:39:56;;;;;;;6.78;4.65;;;;;;;9.09;50.65;98982.66;4996850;28;20188;-75
2022/04/20 04:42:23;;;;;;;4.60;3.80;;;;;;;9.22;50.23;98974.69;5003181;28;20192;-75
2022/04/20 04:44:51;;;;;;;5.35;3.70;;;;;;;9.17;50.34;98976.81;5015106;28;20209;-75
2022/04/20 04:50:13;;;;;;;4.95;3.88;;;;;;;8.85;51.20;98974.28;4973597;28;20212;-74
2022/04/20 04:52:40;;;;;;;4.32;3.85;;;;;;;8.83;51.33;98980.69;4989960;28;20708;-74
2022/04/20 04:55:07;;;;;;;4.82;3.65;;;;;;;8.90;51.13;98977.53;4995303;28;20626;-75
2022/04/20 04:57:34;;;;;;;8.25;3.47;;;;;;;9.09;50.94;98988.03;4994976;28;20625;-75
2022/04/20 05:00:02;;;;;;;4.55;4.15;;;;;;;8.98;50.97;98975.25;5010969;28;20559;-75
2022/04/20 05:02:28;;;;;;;5.47;4.40;;;;;;;9.13;50.70;98980.63;5014804;28;20248;-75
2022/04/20 05:04:55;;;;;;;4.70;3.80;;;;;;;9.23;50.67;98981.81;5014476;28;20298;-74
2022/04/20 05:07:23;;;;;;;6.05;4.30;;;;;;;9.30;50.17;98988.50;5014356;28;20189;-75
2022/04/20 05:09:49;;;;;;;7.80;4.15;;;;;;;9.37;49.84;98994.38;5014732;28;20574;-75
2022/04/20 05:12:17;;;;;;;4.15;3.67;;;;;;;9.23;50.20;98997.91;5007393;28;20197;-74
2022/04/20 05:14:43;;;;;;;7.65;3.90;;;;;;;9.34;50.08;98998.13;4994411;28;20340;-75
2022/04/20 05:17:12;;;;;;;6.45;3.20;;;;;;;9.46;49.74;98996.47;4994603;28;20567;-74
2022/04/20 05:19:39;;;;;;;4.60;4.00;;;;;;;9.35;49.99;98997.13;4997686;28;20194;-74
2022/04/20 05:22:06;;;;;;;5.38;4.20;;;;;;;9.49;49.76;98995.41;5014560;28;20216;-74
2022/04/20 05:24:35;;;;;;;6.97;3.47;;;;;;;9.38;49.63;99002.34;5014151;28;20225;-75
2022/04/20 05:27:02;;;;;;;5.18;4.35;;;;;;;9.46;49.43;99003.69;4996016;28;20249;-74
2022/04/20 05:29:29;;;;;;;5.72;4.53;;;;;;;9.52;49.81;99011.31;4994237;28;20222;-74
2022/04/20 05:31:56;;;;;;;5.60;4.47;;;;;;;9.61;49.51;99002.72;4994402;28;20211;-75
2022/04/20 05:34:26;;;;;;;5.32;4.25;;;;;;;9.74;48.87;98992.88;5006726;28;20194;-75
2022/04/20 05:42:21;;;;;;;9.55;7.60;;;;;;;10.07;48.60;99005.09;5013147;28;20235;-75
2022/04/20 05:44:48;;;;;;;7.78;4.65;;;;;;;9.99;48.07;98993.97;5013173;28;20226;-75
2022/04/20 05:47:14;;;;;;;5.68;3.33;;;;;;;9.75;48.66;98994.63;4993583;28;20207;-75
2022/04/20 05:49:42;;;;;;;5.45;3.95;;;;;;;9.73;49.02;98999.22;4994252;28;20225;-76
2022/04/20 05:52:09;;;;;;;5.38;4.43;;;;;;;9.73;48.97;98993.84;4995342;28;20204;-75
2022/04/20 05:54:36;;;;;;;6.10;4.25;;;;;;;9.59;49.21;98994.75;4993954;28;20311;-75
2022/04/20 05:57:03;;;;;;;4.63;3.97;;;;;;;9.75;49.14;98988.38;5009091;28;20327;-75
2022/04/20 05:59:29;;;;;;;5.10;4.03;;;;;;;9.85;48.85;98992.19;5013381;28;20302;-75
2022/04/20 06:01:56;;;;;;;5.55;4.00;;;;;;;9.85;48.60;98999.41;4998268;28;20193;-84
2022/04/20 06:04:23;;;;;;;6.65;4.05;;;;;;;9.90;48.35;98987.38;5000984;28;20226;-87
2022/04/20 06:06:51;;;;;;;4.70;3.72;;;;;;;9.82;48.67;98979.81;5013121;28;20194;-83
2022/04/20 06:09:18;;;;;;;6.53;4.00;;;;;;;9.95;48.63;98985.25;5012976;28;20556;-83
2022/04/20 06:11:45;;;;;;;5.85;3.55;;;;;;;9.84;48.52;98976.19;5012004;28;20559;-83
2022/04/20 06:14:12;;;;;;;5.65;3.90;;;;;;;9.75;49.02;98977.63;4993554;28;20632;-83
2022/04/20 06:16:38;;;;;;;6.65;4.60;;;;;;;9.95;48.72;98987.06;4993127;28;20281;-86
2022/04/20 06:19:06;;;;;;;7.85;4.40;;;;;;;10.09;48.11;98987.03;4993807;28;20206;-86
2022/04/20 06:21:34;;;;;;;4.35;3.95;;;;;;;10.24;47.79;98987.84;5006220;28;20279;-86
2022/04/20 06:24:02;;;;;;;9.43;4.50;;;;;;;10.49;47.48;98988.94;5013384;28;20523;-86
2022/04/20 06:26:28;;;;;;;6.45;4.40;;;;;;;10.38;47.47;98992.34;5010164;28;20187;-84
2022/04/20 06:28:55;;;;;;;5.20;3.90;;;;;;;10.47;47.27;98997.13;4993148;28;20212;-84
2022/04/20 06:31:24;;;;;;;10.10;4.25;;;;;;;10.41;47.22;98990.31;5001376;28;20208;-84
2022/04/20 06:33:51;;;;;;;5.95;3.80;;;;;;;10.29;47.24;98993.84;5006111;28;20526;-84
2022/04/20 06:36:18;;;;;;;5.85;3.90;;;;;;;10.37;47.61;98987.94;5012815;28;20241;-84
2022/04/20 06:38:45;;;;;;;4.65;4.05;;;;;;;10.49;47.28;98981.75;5012801;28;20341;-86
2022/04/20 06:41:13;;;;;;;7.65;4.22;;;;;;;10.69;46.85;98991.13;5012627;28;20541;-84
2022/04/20 06:43:39;;;;;;;4.93;4.40;;;;;;;10.59;46.85;98998.97;4996431;28;20660;-76
2022/04/20 06:46:06;;;;;;;4.95;3.72;;;;;;;10.63;46.82;98992.41;4993067;28;20577;-77
2022/04/20 06:48:32;;;;;;;6.25;3.97;;;;;;;10.84;46.45;98997.31;4992840;28;20511;-76
2022/04/20 06:50:59;;;;;;;5.05;4.10;;;;;;;11.04;46.35;98996.78;4992854;28;20195;-77
2022/04/20 06:59:10;;;;;;;4.10;3.63;;;;;;;11.20;44.93;98995.72;4992229;28;20175;-76
2022/04/20 07:01:36;;;;;;;5.07;4.45;;;;;;;11.14;45.26;98999.69;4992786;28;20192;-77
2022/04/20 07:04:03;;;;;;;6.00;3.88;;;;;;;11.37;44.43;98992.66;4992524;28;20203;-77
2022/04/20 07:06:30;;;;;;;7.10;4.18;;;;;;;11.60;44.02;98993.75;4993814;28;20589;-76
2022/04/20 07:08:57;;;;;;;10.40;4.25;;;;;;;11.71;43.64;98989.41;4993615;28;20391;-77
2022/04/20 07:11:28;;;;;;;5.28;3.83;;;;;;;11.77;43.67;98991.66;4992365;28;20572;-77
2022/04/20 07:13:57;;;;;;;4.05;3.38;;;;;;;11.72;43.15;98992.00;5005465;28;20194;-78
2022/04/20 07:16:27;;;;;;;5.65;3.70;;;;;;;12.02;42.54;98994.31;5007078;28;20226;-78
2022/04/20 07:18:54;;;;;;;4.75;3.60;;;;;;;11.88;43.01;98998.03;4992339;28;20294;-77
2022/04/20 07:21:20;;;;;;;7.18;3.75;;;;;;;11.85;42.71;98989.28;4992529;28;20183;-78
2022/04/20 07:23:47;;;;;;;5.78;3.70;;;;;;;12.13;42.34;98998.91;4992101;28;20184;-77
2022/04/20 07:26:14;;;;;;;7.00;3.47;;;;;;;12.21;42.11;98992.94;4992361;28;20204;-76
2022/04/20 07:28:40;;;;;;;6.63;4.00;;;;;;;12.06;42.19;98994.94;4995448;28;20199;-79
2022/04/20 07:31:07;;;;;;;9.13;4.18;;;;;;;12.44;41.49;98992.09;4992700;28;20688;-77
2022/04/20 07:33:35;;;;;;;5.13;3.53;;;;;;;12.17;41.89;98992.31;4992622;28;20676;-77
2022/04/20 07:36:02;;;;;;;5.50;4.32;;;;;;;12.39;41.35;99001.50;4991592;28;20183;-78
2022/04/20 07:38:29;;;;;;;5.82;4.32;;;;;;;12.33;41.11;99007.38;4992326;28;20191;-77
2022/04/20 07:40:55;;;;;;;6.32;4.32;;;;;;;12.76;40.55;99004.97;4992501;28;20218;-77
2022/04/20 07:43:23;;;;;;;4.93;3.85;;;;;;;12.94;40.04;99003.56;5002228;28;20704;-78
2022/04/20 07:45:50;;;;;;;9.43;3.65;;;;;;;12.88;39.40;99003.16;5012019;28;20640;-78
2022/04/20 07:48:16;;;;;;;6.03;4.10;;;;;;;12.97;39.83;98999.75;5012002;28;20561;-76
2022/04/20 07:50:45;;;;;;;4.03;3.58;;;;;;;12.77;39.22;99005.84;5011922;28;20243;-78
2022/04/20 07:53:12;;;;;;;5.15;3.90;;;;;;;13.21;38.73;98999.69;5011743;28;20618;-77
2022/04/20 07:55:43;;;;;;;5.50;3.83;;;;;;;13.43;37.96;98993.50;5010881;28;20323;-80
2022/04/20 07:58:09;;;;;;;4.90;3.20;;;;;;;12.85;38.65;98998.88;5001060;28;20198;-77
2022/04/20 08:00:36;;;;;;;5.20;2.95;;;;;;;12.65;38.38;98996.84;4992351;28;20638;-77
2022/04/20 08:03:10;;;;;;;7.07;3.80;;;;;;;12.74;38.52;98996.13;4991946;28;20290;-77
2022/04/20 08:05:37;;;;;;;4.30;3.17;;;;;;;12.85;38.29;99001.56;4995609;28;20199;-78
2022/04/20 08:08:06;;;;;;;3.53;3.20;;;;;;;13.06;37.89;98996.34;5007491;28;20193;-78
2022/04/20 08:10:32;;;;;;;4.50;3.85;;;;;;;13.43;37.46;98992.59;5008353;28;20219;-76
2022/04/20 08:12:59;;;;;;;3.88;3.47;;;;;;;13.32;37.36;98991.63;4991975;28;20235;-77
2022/04/20 08:15:26;;;;;;;4.85;3.33;;;;;;;13.53;37.11;98993.59;5001964;28;20202;-78
2022/04/20 08:17:52;;;;;;;3.75;3.00;;;;;;;13.79;36.84;99002.31;4998247;28;20532;-78
2022/04/20 08:20:19;;;;;;;3.53;3.22;;;;;;;13.85;36.90;98992.84;5011283;28;20278;-77
2022/04/20 08:22:46;;;;;;;5.10;3.83;;;;;;;13.59;36.58;98997.66;5011366;28;20693;-77
2022/04/20 08:25:15;;;;;;;3.28;2.97;;;;;;;13.56;36.52;98993.34;5011145;28;20274;-78
2022/04/20 08:27:41;;;;;;;6.97;4.03;;;;;;;14.11;36.23;98990.69;5010891;28;20204;-77
2022/04/20 08:30:09;;;;;;;6.20;5.40;;;;;;;14.55;35.26;98992.47;5010113;28;20239;-77
2022/04/20 08:32:38;;;;;;;3.42;3.13;;;;;;;14.47;34.52;98994.94;5008572;28;20196;-79
2022/04/20 08:35:05;;;;;;;4.72;3.08;;;;;;;14.29;34.94;98985.63;5008035;28;20204;-77
2022/04/20 08:37:32;;;;;;;4.40;3.53;;;;;;;13.94;35.21;98990.25;5013981;28;20243;-76
2022/04/20 08:40:00;;;;;;;4.03;3.42;;;;;;;14.00;35.22;98985.31;5000656;28;20207;-77
2022/04/20 08:42:31;;;;;;;4.57;3.60;;;;;;;14.14;35.10;98991.31;5014059;28;20213;-77
2022/04/20 08:45:01;;;;;;;4.63;3.50;;;;;;;14.08;35.10;98996.38;5012838;28;20202;-78
2022/04/20 08:47:29;;;;;;;5.00;3.35;;;;;;;14.59;34.41;98993.06;5001061;28;20643;-76
2022/04/20 08:49:58;;;;;;;15.25;3.95;;;;;;;15.05;33.60;98991.84;4994661;28;20276;-75
2022/04/20 08:52:38;;;;;;;4.50;3.25;;;;;;;14.94;33.07;98991.91;4996134;28;20292;-76
2022/04/20 08:55:10;;;;;;;5.25;3.42;;;;;;;14.62;33.96;98984.66;5015008;28;20225;-77
2022/04/20 08:58:13;;;;;;;6.15;3.83;;;;;;;14.93;33.43;98988.34;5017311;28;20617;-78
2022/04/20 09:00:42;;;;;;;5.78;3.25;;;;;;;15.23;33.83;98989.38;4996339;28;20194;-86
2022/04/20 09:03:08;;;;;;;4.30;3.60;;;;;;;14.84;33.97;98985.56;4997608;28;21051;-86
2022/04/20 09:05:35;;;;;;;5.00;3.63;;;;;;;14.65;33.78;98992.53;4999187;28;20194;-86
2022/04/20 09:08:09;;;;;;;3.33;3.00;;;;;;;14.51;33.94;98998.22;4996381;28;20213;-85
2022/04/20 09:10:37;;;;;;;8.00;3.50;;;;;;;14.51;34.05;98995.53;5008840;28;20293;-85
2022/04/20 09:13:06;;;;;;;3.70;3.40;;;;;;;14.73;34.12;98995.47;5006864;28;20194;-86
2022/04/20 09:15:34;;;;;;;5.03;3.65;;;;;;;14.35;34.88;98988.69;4996637;28;20237;-87
2022/04/20 09:18:03;;;;;;;4.93;3.80;;;;;;;14.96;34.01;98979.09;4996352;28;20663;-87
2022/04/20 09:20:31;;;;;;;4.38;3.55;;;;;;;15.12;33.79;98981.31;4997325;28;20201;-87
2022/04/20 09:23:03;;;;;;;4.80;3.50;;;;;;;15.31;33.44;98989.59;4996547;28;20239;-85
2022/04/20 09:25:34;;;;;;;4.38;3.40;;;;;;;15.41;33.31;98976.91;4996409;28;20612;-85
2022/04/20 09:28:01;;;;;;;5.90;4.22;;;;;;;14.47;34.45;98967.84;5007445;28;20197;-85
2022/04/20 09:30:33;;;;;;;5.93;3.70;;;;;;;14.52;34.50;98992.69;5014157;28;20213;-87
2022/04/20 09:33:02;;;;;;;3.70;3.40;;;;;;;14.36;34.88;98967.91;5014481;28;20612;-87
2022/04/20 09:35:30;;;;;;;5.15;3.50;;;;;;;14.15;35.11;98963.25;4999106;28;20199;-85
2022/04/20 09:38:05;;;;;;;4.82;4.07;;;;;;;14.37;34.64;98967.75;5013828;28;20287;-86
2022/04/20 09:40:34;;;;;;;4.65;3.90;;;;;;;14.54;34.23;98976.28;5012807;28;20187;-87
2022/04/20 09:43:01;;;;;;;3.63;3.33;;;;;;;14.65;34.11;98965.44;5013168;28;20191;-83
2022/04/20 09:45:29;;;;;;;6.47;3.85;;;;;;;14.56;34.61;98960.81;5013477;28;20224;-84
2022/04/20 09:50:43;;;;;;;6.65;3.97;;;;;;;15.25;33.99;98960.28;5013744;28;20311;-84
2022/04/20 09:53:12;;;;;;;4.10;3.70;;;;;;;14.56;34.78;98955.38;5012791;28;20211;-85
2022/04/20 09:55:40;;;;;;;4.85;3.30;;;;;;;15.16;34.28;98956.53;5008666;28;20229;-84
2022/04/20 09:58:17;;;;;;;6.88;3.75;;;;;;;15.55;33.74;98937.72;5010679;28;20206;-85
2022/04/20 10:00:46;;;;;;;5.22;4.30;;;;;;;15.73;33.58;98961.53;5012098;28;20252;-84
2022/04/20 10:03:24;;;;;;;7.65;3.75;;;;;;;16.16;32.76;98952.22;5012108;28;20198;-84
2022/04/20 10:05:53;;;;;;;4.30;3.60;;;;;;;16.03;32.33;98958.78;5013225;28;20201;-83
2022/04/20 10:08:20;;;;;;;6.05;3.63;;;;;;;15.48;33.13;98954.69;5013494;28;20190;-84
2022/04/20 10:10:48;;;;;;;3.60;3.30;;;;;;;14.94;33.26;98953.97;5011521;28;20285;-84
2022/04/20 10:13:16;;;;;;;4.60;3.92;;;;;;;15.49;33.14;98959.09;4995043;28;20197;-83
2022/04/20 10:18:30;;;;;;;4.22;3.35;;;;;;;15.12;32.89;98960.50;5012807;28;20664;-85
2022/04/20 10:20:59;;;;;;;6.78;4.18;;;;;;;14.48;33.20;98949.75;5012828;28;20187;-84
2022/04/20 10:23:29;;;;;;;8.10;3.63;;;;;;;14.97;32.92;98948.28;5010709;28;20202;-83
2022/04/20 10:25:57;;;;;;;5.28;3.92;;;;;;;15.34;32.50;98954.06;4993340;28;20190;-82
2022/04/20 10:28:30;;;;;;;4.78;3.55;;;;;;;14.73;33.15;98957.53;4993551;28;20207;-84
2022/04/20 10:31:10;;;;;;;4.10;3.70;;;;;;;15.34;32.49;98945.06;4994424;28;20272;-83
2022/04/20 10:33:39;;;;;;;6.32;3.75;;;;;;;15.08;32.78;98941.91;4997707;28;20272;-85
2022/04/20 10:36:09;;;;;;;5.57;4.43;;;;;;;15.01;32.92;98947.88;5013372;28;20186;-85
2022/04/20 10:38:36;;;;;;;6.55;5.25;;;;;;;15.15;32.99;98951.22;5013540;28;20209;-84
2022/04/20 10:41:08;;;;;;;7.40;4.50;;;;;;;15.34;32.42;98940.50;5013197;28;20197;-82
2022/04/20 10:43:38;;;;;;;8.50;4.03;;;;;;;15.10;32.54;98948.91;5009680;28;20607;-84
2022/04/20 10:46:14;;;;;;;6.10;3.80;;;;;;;15.36;32.18;98938.50;4994053;28;20226;-84
2022/04/20 10:49:00;;;;;;;4.97;4.35;;;;;;;15.96;31.85;98949.44;4993666;28;20695;-83
2022/04/20 10:51:40;;;;;;;8.15;5.47;;;;;;;16.31;31.04;98926.34;4993756;28;20253;-83
2022/04/20 10:54:26;;;;;;;4.95;4.55;;;;;;;16.20;31.40;98940.91;4997862;28;20203;-85
2022/04/20 10:57:11;;;;;;;6.43;4.55;;;;;;;15.97;31.62;98934.88;5014186;28;20231;-86
2022/04/20 10:59:39;;;;;;;5.10;4.60;;;;;;;15.64;31.96;98931.47;5012895;28;20210;-85
2022/04/20 11:02:09;;;;;;;4.63;4.18;;;;;;;15.50;32.34;98928.28;5008773;28;20214;-85
2022/04/20 11:04:39;;;;;;;3.97;3.58;;;;;;;15.41;32.51;98919.09;5005668;28;20206;-86
2022/04/20 11:07:19;;;;;;;6.57;3.83;;;;;;;15.32;31.98;98923.50;4995360;28;20291;-83
2022/04/20 11:19:08;;;;;;;4.78;3.00;;;;;;;15.69;31.03;98906.63;5004285;28;20607;-84
2022/04/20 11:21:36;;;;;;;3.50;3.13;;;;;;;15.59;31.10;98905.75;5001301;28;20206;-84
2022/04/20 11:24:10;;;;;;;4.50;3.55;;;;;;;15.49;31.02;98900.31;4999834;28;20548;-84
2022/04/20 11:26:39;;;;;;;4.65;3.67;;;;;;;16.12;30.27;98907.31;4993917;28;20641;-84
2022/04/20 11:29:11;;;;;;;4.00;3.70;;;;;;;16.19;29.92;98908.47;4991920;28;20214;-83
2022/04/20 11:31:40;;;;;;;6.00;3.97;;;;;;;16.47;29.59;98901.34;4994338;28;20633;-85
2022/04/20 11:34:07;;;;;;;6.22;3.80;;;;;;;16.15;29.73;98898.91;5002585;28;20207;-84
2022/04/20 11:36:34;;;;;;;3.75;3.30;;;;;;;15.98;29.75;98920.31;4995715;28;20203;-84
2022/04/20 11:39:01;;;;;;;6.47;3.60;;;;;;;15.67;30.17;98897.78;4994935;28;20194;-85
2022/04/20 11:41:29;;;;;;;4.88;3.40;;;;;;;15.66;30.05;98892.50;5002094;28;20199;-83
2022/04/20 11:43:56;;;;;;;5.68;3.97;;;;;;;16.03;29.87;98888.19;5005384;28;20207;-84
2022/04/20 11:46:23;;;;;;;4.68;3.70;;;;;;;16.43;29.63;98906.19;5007970;28;20206;-84
2022/04/20 11:48:54;;;;;;;6.40;5.32;;;;;;;16.48;29.29;98889.44;5006625;28;20638;-83
2022/04/20 11:51:25;;;;;;;5.32;4.35;;;;;;;16.68;29.36;98893.00;4996015;28;20207;-83
2022/04/20 11:53:53;;;;;;;4.75;3.55;;;;;;;15.95;30.11;98890.72;5007433;28;20229;-83
2022/04/20 11:56:35;;;;;;;4.13;3.70;;;;;;;15.78;30.57;98894.13;4991924;28;20231;-84
2022/04/20 11:59:02;;;;;;;5.20;3.97;;;;;;;15.50;31.00;98890.31;4999074;28;20203;-84
2022/04/20 12:01:31;;;;;;;4.65;3.55;;;;;;;15.63;30.79;98894.47;5002032;28;20249;-84
2022/04/20 12:04:00;;;;;;;3.90;3.50;;;;;;;15.99;30.13;98886.75;4995621;28;20291;-84
2022/04/20 12:06:28;;;;;;;3.78;3.30;;;;;;;15.98;29.77;98889.59;5004317;28;20218;-84
2022/04/20 12:08:55;;;;;;;5.00;3.75;;;;;;;16.15;29.68;98879.91;5013675;28;20200;-84